Fuerteventura (La Oliva), Spain
Current Conditions -  °F | °C
As of 5:00 PM on Thursday 30 Oct 2014 (Local Time) from GCFV Reporting Station
Scattered Clouds Scattered Clouds  
Wind Chill: 79°   Ceiling: Unl
Heat Index: 80°   Visibility: 6mi
Dew Point: 61°   Wind: 6mph
Humidity: 54%   Direction: 360°N
Pressure: 29.94"   Gusts: NA
Location:  28.6°N, 13.93°W
Report Text: GCFV 301700Z 36005KT 280V080 9999 SCT033 26/16 Q1014
Loading
Personal Weather Stations






























Interactive Weather Map
Tropical Storm Tracking
New forecast layout! Learn more

10-Day Weather Forecast

Advertisements
Track Severe Weather on mobile